Latest Weather Observations for Griffith

IDN60801

Issued at 9:42 pm EDT Saturday 25 January 2020 (issued every 10 minutes, with the page automatically refreshed every 10 minutes)

About weather observations | Map of weather stations | Latest weather observations for NSW | Other Formats
Station Details ID: 075041 Name: GRIFFITH AIRPORT AWS Lat: -34.25 Lon: 146.07 Height: 134.0 m
Data from the previous 72 hours. | See also: Recent months at Griffith
Date/Time
EDT
Temp
°C
App
Temp
°C
Dew
Point
°C
Rel
Hum
%
Delta-T
°C
Wind Press
QNH
hPa
Press
MSL
hPa
Rain since
9am
mm
Dir  Spd
km/h
Gust
km/h
Spd
kts
Gust
kts
25/09:30pm 25.3 22.2 5.5 28 10.2 S 11 13 6 7 1012.3 1011.6 0.0
25/09:00pm 25.3 22.4 4.4 26 10.5 S 9 11 5 6 1012.0 1011.3 0.0
25/08:30pm 27.4 24.5 4.5 23 11.7 SSW 9 13 5 7 1011.6 1010.9 0.0
25/08:00pm 29.0 24.9 4.5 21 12.6 SSW 15 19 8 10 1011.5 1010.8 0.0
25/07:30pm 30.0 26.3 4.6 20 13.2 SW 13 19 7 10 1011.1 1010.4 0.0
25/07:00pm 30.3 25.9 4.9 20 13.3 S 17 26 9 14 1010.9 1010.2 0.0
25/06:30pm 30.9 26.5 4.6 19 13.7 SSW 17 24 9 13 1010.8 1010.1 0.0
25/06:00pm 31.2 27.0 5.6 20 13.6 S 17 28 9 15 1010.5 1009.8 0.0
25/05:30pm 31.3 27.5 5.7 20 13.7 SSW 15 24 8 13 1010.6 1009.9 0.0
25/05:00pm 31.0 27.3 4.7 19 13.8 S 13 22 7 12 1010.9 1010.2 0.0
25/04:30pm 30.9 26.6 5.3 20 13.5 W 17 28 9 15 1011.2 1010.5 0.0
25/04:00pm 30.8 27.4 6.0 21 13.3 NW 13 26 7 14 1011.3 1010.6 0.0
25/03:30pm 30.8 26.9 5.3 20 13.5 W 15 22 8 12 1011.6 1010.9 0.0
25/03:00pm 30.7 27.3 5.9 21 13.2 WSW 13 24 7 13 1012.1 1011.4 0.0
25/02:30pm 29.8 26.3 7.1 24 12.3 SW 15 24 8 13 1012.6 1011.9 0.0
25/02:00pm 29.0 25.8 7.0 25 11.8 SW 13 20 7 11 1013.1 1012.4 0.0
25/01:30pm 28.3 25.0 6.4 25 11.6 S 13 22 7 12 1013.6 1012.9 0.0
25/01:00pm 27.4 23.9 7.3 28 10.8 S 15 37 8 20 1014.0 1013.3 0.0
25/12:30pm 27.9 25.2 7.2 27 11.1 SSW 11 20 6 11 1014.5 1013.8 0.0
25/12:00pm 26.4 23.6 6.9 29 10.3 SE 11 20 6 11 1014.8 1014.1 0.0
25/11:30am 26.4 23.7 7.4 30 10.1 S 11 20 6 11 1014.9 1014.2 0.0
25/11:00am 25.3 21.8 7.0 31 9.6 SSE 15 24 8 13 1015.1 1014.5 0.0
25/10:30am 25.2 22.2 7.8 33 9.3 SE 13 22 7 12 1015.3 1014.7 0.0
25/10:00am 23.5 20.2 8.0 37 8.2 SE 15 20 8 11 1015.6 1015.0 0.0
25/09:30am 23.0 19.9 8.7 40 7.7 SE 15 20 8 11 1015.6 1015.0 0.0
25/09:00am 21.3 17.5 9.2 46 6.5 SE 19 22 10 12 1015.5 1014.9 0.0
25/08:30am 20.2 16.3 8.5 47 6.2 SE 19 24 10 13 1015.2 1014.6 0.0
25/08:00am 19.7 16.0 8.1 47 6.0 SE 17 22 9 12 1015.0 1014.4 0.0
25/07:30am 19.1 15.4 7.8 48 5.8 SE 17 20 9 11 1014.9 1014.2 0.0
25/07:00am 18.7 14.9 7.5 48 5.7 SSE 17 22 9 12 1014.6 1013.9 0.0
25/06:30am 18.0 14.9 7.4 50 5.4 S 13 17 7 9 1014.4 1013.7 0.0
25/06:00am 17.4 14.0 7.5 52 5.0 S 15 19 8 10 1014.2 1013.5 0.0
25/05:30am 18.7 15.6 7.2 47 5.8 SE 13 19 7 10 1013.8 1013.1 0.0
25/05:00am 14.4 12.9 6.7 60 3.8 S 4 13 2 7 1013.6 1012.9 0.0
25/04:30am 14.9 14.0 6.2 56 4.2 CALM 0 0 0 0 1013.7 1013.0 0.0
25/04:00am 16.5 15.1 5.5 48 5.3 SE 2 7 1 4 1013.6 1012.9 0.0
25/03:30am 18.9 15.9 6.1 43 6.4 SE 11 13 6 7 1013.7 1013.0 0.0
25/03:00am 18.9 15.5 6.1 43 6.4 SSE 13 15 7 8 1013.7 1013.0 0.0
25/02:30am 19.6 16.5 5.6 40 6.9 SSE 11 13 6 7 1013.8 1013.1 0.0
25/02:00am 20.4 17.0 6.0 39 7.2 SSE 13 19 7 10 1013.9 1013.2 0.0
25/01:30am 20.1 16.6 5.4 38 7.3 SSE 13 17 7 9 1014.0 1013.3 0.0
25/01:00am 20.2 17.1 5.4 38 7.3 SSE 11 15 6 8 1014.0 1013.3 0.0
25/12:30am 19.9 16.7 5.2 38 7.2 SSE 11 13 6 7 1014.3 1013.6 0.0
25/12:00am 20.1 16.9 5.0 37 7.4 S 11 13 6 7 1014.4 1013.7 0.0
 
Date/Time
EDT
Temp
°C
App
Temp
°C
Dew
Point
°C
Rel
Hum
%
Delta-T
°C
Wind Press
QNH
hPa
Press
MSL
hPa
Rain since
9am
mm
Dir  Spd
km/h
Gust
km/h
Spd
kts
Gust
kts
24/11:30pm 19.6 16.7 4.5 37 7.3 S 9 11 5 6 1014.3 1013.6 0.0
24/11:00pm 20.1 16.8 4.6 36 7.6 S 11 13 6 7 1014.2 1013.5 0.0
24/10:30pm 19.5 16.6 4.4 37 7.3 SSE 9 11 5 6 1014.1 1013.4 0.0
24/10:00pm 20.5 17.5 4.1 34 7.9 S 9 11 5 6 1013.8 1013.1 0.0
24/09:30pm 21.3 18.4 4.4 33 8.3 S 9 9 5 5 1013.4 1012.7 0.0
24/09:00pm 22.4 19.8 4.0 30 9.0 S 7 9 4 5 1012.9 1012.2 0.0
24/08:30pm 23.7 20.2 3.6 27 9.9 S 11 13 6 7 1012.6 1011.9 0.0
24/08:00pm 24.8 20.3 4.0 26 10.4 SSW 17 22 9 12 1012.3 1011.6 0.0
24/07:30pm 25.3 20.6 3.3 24 10.8 SSW 17 24 9 13 1011.9 1011.2 0.0
24/07:00pm 25.6 20.3 2.9 23 11.1 S 20 28 11 15 1011.6 1010.9 0.0
24/06:30pm 26.4 21.2 3.6 23 11.4 SW 20 26 11 14 1011.5 1010.8 0.0
24/06:00pm 26.2 21.6 3.5 23 11.3 SSW 17 26 9 14 1011.5 1010.8 0.0
24/05:30pm 26.4 21.3 3.0 22 11.6 SSW 19 32 10 17 1011.7 1011.0 0.0
24/05:00pm 27.0 21.0 3.5 22 11.8 SW 24 39 13 21 1011.8 1011.1 0.0
24/04:30pm 26.7 21.4 3.2 22 11.7 SW 20 35 11 19 1011.8 1011.1 0.0
24/04:00pm 25.8 20.3 1.8 21 11.6 SW 20 30 11 16 1012.1 1011.4 0.0
24/03:30pm 26.0 21.6 2.7 22 11.4 WSW 15 26 8 14 1012.2 1011.5 0.0
24/03:00pm 26.3 21.0 2.9 22 11.5 WSW 20 35 11 19 1012.4 1011.7 0.0
24/02:30pm 25.3 20.1 2.7 23 11.0 SW 19 30 10 16 1012.9 1012.2 0.0
24/02:00pm 24.8 19.8 3.5 25 10.5 WSW 19 33 10 18 1013.3 1012.6 0.0
24/01:30pm 24.4 19.8 3.7 26 10.2 WSW 17 28 9 15 1013.7 1013.0 0.0
24/01:00pm 23.5 19.0 4.0 28 9.6 SSW 17 28 9 15 1014.0 1013.3 0.0
24/12:30pm 23.2 18.3 4.2 29 9.4 SW 19 30 10 16 1014.0 1013.3 0.0
24/12:00pm 22.7 17.7 3.8 29 9.2 SW 19 30 10 16 1014.3 1013.6 0.0
24/11:30am 22.3 17.2 2.9 28 9.3 SW 19 33 10 18 1014.2 1013.5 0.0
24/11:00am 21.5 16.6 2.2 28 9.1 SW 17 22 9 12 1014.1 1013.4 0.0
24/10:30am 20.9 15.7 2.7 30 8.6 SW 19 28 10 15 1014.2 1013.5 0.0
24/10:00am 20.1 15.5 3.8 34 7.8 SW 17 20 9 11 1014.3 1013.6 0.0
24/09:30am 19.1 14.8 5.2 40 6.8 SSW 17 22 9 12 1014.3 1013.6 0.0
24/09:00am 18.0 13.6 4.9 42 6.3 SSW 17 22 9 12 1014.0 1013.3 1.4
24/08:30am 17.4 13.6 5.7 46 5.7 SSW 15 19 8 10 1013.9 1013.2 1.4
24/08:00am 16.6 13.1 5.6 48 5.3 SW 13 17 7 9 1013.4 1012.7 1.4
24/07:30am 15.4 12.8 6.2 54 4.5 W 9 11 5 6 1012.6 1011.9 1.4
24/07:00am 14.7 12.5 6.0 56 4.2 SSW 7 11 4 6 1011.9 1011.2 1.4
24/06:30am 14.5 11.8 5.8 56 4.2 SW 9 13 5 7 1011.5 1010.8 1.4
24/06:00am 14.9 11.8 5.4 53 4.5 SSW 11 15 6 8 1010.8 1010.1 1.4
24/05:30am 15.6 11.7 5.2 50 5.0 SSW 15 19 8 10 1010.3 1009.6 1.4
24/05:00am 15.9 11.7 5.5 50 5.0 SSW 17 22 9 12 1010.1 1009.4 1.4
24/04:30am 16.1 12.7 5.7 50 5.0 SSW 13 17 7 9 1010.0 1009.3 1.4
24/04:00am 16.6 12.8 5.6 48 5.3 SSW 15 22 8 12 1009.8 1009.1 1.4
24/03:30am 17.3 13.1 5.6 46 5.7 S 17 22 9 12 1009.7 1009.0 1.4
24/03:00am 17.7 13.5 5.9 46 5.8 S 17 22 9 12 1009.7 1009.0 1.4
24/02:30am 18.2 13.4 5.8 44 6.1 S 20 28 11 15 1009.5 1008.8 1.4
24/02:00am 18.7 14.4 6.9 46 6.0 SSW 19 24 10 13 1009.4 1008.7 1.4
24/01:30am 19.1 14.6 6.9 45 6.2 SSW 20 30 11 16 1009.2 1008.5 1.4
24/01:00am 19.7 15.2 7.1 44 6.4 SSW 20 26 11 14 1009.1 1008.4 1.4
24/12:30am 20.4 15.7 7.7 44 6.6 SSW 22 30 12 16 1008.8 1008.1 1.4
24/12:00am 20.7 18.0 10.5 52 5.6 SSW 15 20 8 11 1008.3 1007.5 1.4
 
Date/Time
EDT
Temp
°C
App
Temp
°C
Dew
Point
°C
Rel
Hum
%
Delta-T
°C
Wind Press
QNH
hPa
Press
MSL
hPa
Rain since
9am
mm
Dir  Spd
km/h
Gust
km/h
Spd
kts
Gust
kts
23/11:30pm 21.1 18.9 10.9 52 5.6 SSW 13 17 7 9 1007.9 1007.2 1.4
23/11:00pm 21.5 19.0 10.9 51 5.9 SSW 15 20 8 11 1007.4 1006.7 1.4
23/10:30pm 22.0 18.5 10.8 49 6.2 S 20 33 11 18 1006.7 1006.0 1.4
23/10:00pm 22.9 19.1 11.0 47 6.7 SSW 22 30 12 16 1005.9 1005.2 1.4
23/09:30pm 23.5 18.9 11.2 46 6.9 SW 26 35 14 19 1005.4 1004.7 1.4
23/09:00pm 24.0 19.0 11.0 44 7.3 SW 28 37 15 20 1004.9 1004.2 1.4
23/08:30pm 24.4 18.4 10.7 42 7.7 SW 33 44 18 24 1004.3 1003.6 1.4
23/08:06pm 25.8 20.2 10.0 37 8.8 WSW 30 59 16 32 1003.5 1002.8 1.4
23/08:03pm 26.0 21.0 9.4 35 9.2 WSW 26 59 14 32 1003.2 1002.5 1.4
23/08:00pm 26.7 23.0 10.0 35 9.4 WSW 20 26 11 14 1003.1 1002.4 1.4
23/07:30pm 27.6 23.2 10.3 34 9.8 W 24 30 13 16 1002.7 1002.0 1.4
23/07:00pm 28.3 24.8 10.9 34 10.0 W 20 28 11 15 1002.3 1001.6 1.2
23/06:30pm 27.4 25.0 11.4 37 9.2 W 15 22 8 12 1002.3 1001.6 1.2
23/06:00pm 27.3 24.3 12.1 39 8.9 WNW 19 24 10 13 1002.4 1001.7 1.2
23/05:30pm 25.7 23.8 11.8 42 8.0 WSW 13 20 7 11 1002.5 1001.8 1.2
23/05:00pm 25.8 23.5 13.0 45 7.5 SW 17 28 9 15 1002.8 1002.1 1.2
23/04:30pm 25.4 23.5 12.9 45 7.3 W 15 20 8 11 1003.1 1002.4 1.2
23/04:00pm 24.5 22.2 11.8 45 7.3 W 15 24 8 13 1003.2 1002.5 1.2
23/03:30pm 22.6 21.3 15.7 65 4.2 WSW 17 24 9 13 1003.6 1002.9 1.2
23/03:00pm 22.5 20.7 15.4 64 4.3 WSW 19 22 10 12 1003.6 1002.9 0.2
23/02:30pm 20.7 19.4 17.3 81 2.1 SW 20 28 11 15 1003.7 1003.0 0.2
23/02:00pm 23.4 19.4 11.8 48 6.6 WSW 24 32 13 17 1003.8 1003.1 0.0
23/01:30pm 24.4 19.8 9.6 39 8.1 W 24 30 13 16 1003.5 1002.8 0.0
23/01:00pm 25.5 20.3 10.1 38 8.6 W 28 35 15 19 1003.4 1002.7 0.0
23/12:30pm 26.8 21.3 10.5 36 9.2 WNW 30 39 16 21 1003.2 1002.5 0.0
23/12:00pm 26.4 20.4 8.8 33 9.7 W 30 43 16 23 1002.9 1002.2 0.0
23/11:30am 26.5 21.8 10.6 37 9.0 WNW 26 35 14 19 1002.7 1002.0 0.0
23/11:00am 25.7 21.9 11.1 40 8.3 WNW 22 32 12 17 1003.1 1002.4 0.0
23/10:30am 24.9 20.8 11.5 43 7.6 W 24 32 13 17 1002.9 1002.2 0.0
23/10:00am 23.5 19.8 11.5 47 6.8 WSW 22 30 12 16 1003.2 1002.5 0.0
23/09:30am 22.5 18.5 11.9 51 6.0 WSW 24 32 13 17 1002.9 1002.2 0.0
23/09:00am 21.8 17.0 11.8 53 5.7 SW 28 37 15 20 1003.0 1002.3 0.0
23/08:30am 21.5 18.7 12.6 57 5.1 SW 19 26 10 14 1002.6 1001.9 0.0
23/08:00am 21.2 17.2 12.9 59 4.8 SW 26 35 14 19 1002.1 1001.4 0.0
23/07:30am 21.1 16.7 13.0 60 4.6 SW 28 39 15 21 1001.6 1000.8 0.0
23/07:00am 21.3 17.6 12.7 58 4.9 SW 24 37 13 20 999.6 998.9 0.0
23/06:30am 22.6 18.9 11.4 49 6.3 WSW 22 30 12 16 999.0 998.3 0.0
23/06:00am 24.3 18.6 9.8 40 8.0 WSW 30 44 16 24 998.2 997.5 0.0
23/05:49am 26.8 21.4 7.8 30 10.2 W 26 39 14 21 997.9 997.2 0.0
23/05:30am 31.8 24.1 0.0 13 15.5 NNW 30 43 16 23 996.8 996.1 0.0
23/05:00am 31.9 25.0 0.1 13 15.6 NNW 26 37 14 20 996.5 995.8 0.0
23/04:30am 32.9 24.8 -0.2 12 16.2 NNW 32 44 17 24 996.7 996.0 0.0
23/04:02am 33.4 25.2 0.1 12 16.4 N 33 56 18 30 996.6 995.9 0.0
23/04:00am 33.2 24.9 0.0 12 16.4 N 33 46 18 25 996.6 995.9 0.0
23/03:30am 33.2 24.7 1.1 13 16.0 N 35 52 19 28 996.8 996.1 0.0
23/03:00am 33.3 25.4 1.2 13 16.2 N 32 48 17 26 997.0 996.3 0.0
23/02:44am 33.5 26.0 1.3 13 16.2 N 30 48 16 26 997.4 996.7 0.0
23/02:30am 33.3 25.8 1.2 13 16.1 N 30 46 16 25 997.6 996.9 0.0
23/02:22am 33.3 26.3 2.2 14 15.8 N 28 46 15 25 997.6 996.9 0.0
23/02:00am 33.1 26.1 2.1 14 15.8 N 28 37 15 20 997.9 997.2 0.0
23/01:30am 33.2 26.2 2.1 14 15.8 N 28 35 15 19 998.4 997.7 0.0
23/01:00am 33.2 26.6 2.1 14 15.9 N 26 35 14 19 998.7 998.0 0.0
23/12:30am 33.5 26.2 2.4 14 15.9 N 30 39 16 21 998.9 998.2 0.0
23/12:00am 33.6 26.7 2.4 14 16.1 N 28 35 15 19 998.9 998.2 0.0
 
Date/Time
EDT
Temp
°C
App
Temp
°C
Dew
Point
°C
Rel
Hum
%
Delta-T
°C
Wind Press
QNH
hPa
Press
MSL
hPa
Rain since
9am
mm
Dir  Spd
km/h
Gust
km/h
Spd
kts
Gust
kts
22/11:30pm 33.4 27.8 3.3 15 15.6 N 22 30 12 16 999.3 998.6 0.0
22/11:00pm 32.5 27.1 2.5 15 15.4 N 20 26 11 14 999.7 999.0 0.0
22/10:30pm 32.8 27.7 2.8 15 15.4 N 19 28 10 15 999.7 999.0 0.0
22/10:00pm 33.4 28.3 3.3 15 15.7 NNE 19 26 10 14 999.7 999.0 0.0

Other formats

Comma delimited format used in spreadsheet applications
http://www.bom.gov.au/fwo/IDN60801/IDN60801.95704.axf

JavaScript Object Notation format (JSON) in row-major order
http://www.bom.gov.au/fwo/IDN60801/IDN60801.95704.json

Data quality

Most of these data are generated automatically and are frequently updated. Quality checks on data are not normally performed. It is possible for incorrect values to appear. Refer to information at About Latest Weather Observations and please check the disclaimer before using these data.